Search for airport 
image banner adimage banner adimage banner ad
image banner ad

KPVF - Placerville

Located in Placerville, United States

ICAO - PVF, IATA -

Data provided by Airmate  

General information

Coordinates: N38°43'27" W120°45'12"
Elevation is 2586 feet MSL.
Magnetic variation is 14° East
View others Airports in California

Operational data

Special qualification required
Current time UTC:
Current local time:
Weather
METAR: KPVF 292055Z AUTO 28008G14KT 10SM CLR 34/07 A3002 RMK AO1
View NOTAMs / SUP AIP / TFR affecting this airport [VIEW]
Communications frequencies: [VIEW]

Runways:

RWY identifierQFULength (ft)Width (ft)SurfaceLDA (ft)
0562°391476ASPH
23242°391476ASPH

Airport contact information

Address: Placerville United States

Other aviation service providers

Flight schools

Placerville Aviation

Placerville Aviation

Satellite view of KPVF